createdAt,value
2023-04-11T00:00:01.592Z,19.30
2023-04-11T00:01:01.600Z,19.31
2023-04-11T00:02:01.753Z,19.30
2023-04-11T00:03:01.872Z,19.30
2023-04-11T00:04:02.064Z,19.30
2023-04-11T00:05:01.979Z,19.30
2023-04-11T00:06:01.945Z,19.31
2023-04-11T00:07:01.978Z,19.31
2023-04-11T00:08:02.023Z,19.31
2023-04-11T00:09:02.083Z,19.30
2023-04-11T00:10:02.139Z,19.31
2023-04-11T00:11:02.185Z,19.31
2023-04-11T00:12:02.359Z,19.30
2023-04-11T00:13:02.300Z,19.30
2023-04-11T00:14:02.369Z,19.30
2023-04-11T00:15:02.422Z,19.30
2023-04-11T00:16:02.528Z,19.30
2023-04-11T00:17:02.502Z,19.30
2023-04-11T00:18:02.640Z,19.30
2023-04-11T00:19:02.642Z,19.31
2023-04-11T00:20:02.662Z,19.30
2023-04-11T00:21:02.735Z,19.31
2023-04-11T00:22:02.791Z,19.31
2023-04-11T00:23:02.798Z,19.30
2023-04-11T00:24:02.885Z,19.31
2023-04-11T00:25:02.955Z,19.31
2023-04-11T00:26:03.052Z,19.31
2023-04-11T00:27:03.032Z,19.30
2023-04-11T00:28:03.101Z,19.31
2023-04-11T00:29:03.182Z,19.30
2023-04-11T00:30:03.234Z,19.30
2023-04-11T00:31:03.259Z,19.29
2023-04-11T00:32:03.418Z,19.30
2023-04-11T00:33:03.380Z,19.31
2023-04-11T00:34:03.407Z,19.31
2023-04-11T00:35:03.463Z,19.30
2023-04-11T00:36:03.679Z,19.30
2023-04-11T00:37:03.656Z,19.31
2023-04-11T00:38:03.653Z,19.31
2023-04-11T00:39:03.678Z,19.30
2023-04-11T00:40:03.756Z,19.30
2023-04-11T00:41:03.768Z,19.30
2023-04-11T00:42:03.851Z,19.30
2023-04-11T00:43:03.891Z,19.30
2023-04-11T00:44:03.934Z,19.30
2023-04-11T00:45:03.987Z,19.30
2023-04-11T00:46:04.093Z,19.30
2023-04-11T00:47:04.088Z,19.31
2023-04-11T00:48:04.161Z,19.30
2023-04-11T00:49:04.196Z,19.31
2023-04-11T00:50:04.268Z,19.30
2023-04-11T00:51:04.306Z,19.29
2023-04-11T00:52:04.370Z,19.29
2023-04-11T00:53:04.390Z,19.29
2023-04-11T00:54:04.480Z,19.30
2023-04-11T00:55:04.522Z,19.30
2023-04-11T00:56:04.561Z,19.29
2023-04-11T00:57:04.645Z,19.29
2023-04-11T00:58:04.714Z,19.28
2023-04-11T00:59:04.740Z,19.29
2023-04-11T01:00:04.794Z,19.28
2023-04-11T01:01:04.886Z,19.29
2023-04-11T01:02:05.020Z,19.29
2023-04-11T01:03:05.155Z,19.29
2023-04-11T01:04:05.106Z,19.29
2023-04-11T01:05:05.113Z,19.29
2023-04-11T01:06:05.135Z,19.29
2023-04-11T01:07:05.176Z,19.28
2023-04-11T01:08:05.259Z,19.28
2023-04-11T01:09:05.306Z,19.28
2023-04-11T01:10:05.354Z,19.29
2023-04-11T01:11:05.424Z,19.28
2023-04-11T01:12:05.464Z,19.29
2023-04-11T01:13:05.530Z,19.29
2023-04-11T01:14:05.606Z,19.29
2023-04-11T01:15:05.643Z,19.29
2023-04-11T01:16:05.688Z,19.28
2023-04-11T01:17:05.806Z,19.28
2023-04-11T01:18:05.913Z,19.29
2023-04-11T01:19:05.896Z,19.29
2023-04-11T01:20:05.932Z,19.30
2023-04-11T01:21:05.991Z,19.30
2023-04-11T01:22:06.045Z,19.30
2023-04-11T01:23:06.120Z,19.29
2023-04-11T01:24:06.182Z,19.29
2023-04-11T01:25:06.232Z,19.29
2023-04-11T01:26:06.273Z,19.29
2023-04-11T01:27:06.324Z,19.29
2023-04-11T01:28:06.397Z,19.29
2023-04-11T01:29:06.440Z,19.28
2023-04-11T01:30:06.484Z,19.28
2023-04-11T01:31:06.571Z,19.28
2023-04-11T01:32:06.632Z,19.29
2023-04-11T01:33:06.784Z,19.29
2023-04-11T01:34:06.742Z,19.27
2023-04-11T01:35:06.763Z,19.27
2023-04-11T01:36:06.865Z,19.28
2023-04-11T01:37:06.905Z,19.27
2023-04-11T01:38:06.980Z,19.27
2023-04-11T01:39:07.040Z,19.27
2023-04-11T01:40:07.059Z,19.27
2023-04-11T01:41:07.127Z,19.27
2023-04-11T01:42:07.158Z,19.28
2023-04-11T01:43:07.253Z,19.27
2023-04-11T01:44:07.303Z,19.28
2023-04-11T01:45:07.359Z,19.28
2023-04-11T01:46:07.434Z,19.29
2023-04-11T01:47:07.467Z,19.29
2023-04-11T01:48:07.698Z,19.29
2023-04-11T01:49:07.648Z,19.29
2023-04-11T01:50:07.631Z,19.29
2023-04-11T01:51:07.699Z,19.29
2023-04-11T01:52:07.745Z,19.29
2023-04-11T01:53:07.808Z,19.28
2023-04-11T01:54:07.858Z,19.27
2023-04-11T01:55:07.905Z,19.28
2023-04-11T01:56:07.973Z,19.28
2023-04-11T01:57:08.015Z,19.29
2023-04-11T01:58:08.100Z,19.28
2023-04-11T01:59:08.150Z,19.29
2023-04-11T02:00:08.199Z,19.28
2023-04-11T02:01:08.287Z,19.27
2023-04-11T02:02:08.405Z,19.28
2023-04-11T02:03:08.540Z,19.27
2023-04-11T02:04:08.571Z,19.28
2023-04-11T02:05:08.500Z,19.27
2023-04-11T02:06:08.512Z,19.27
2023-04-11T02:07:08.590Z,19.28
2023-04-11T02:08:08.636Z,19.28
2023-04-11T02:09:08.714Z,19.28
2023-04-11T02:10:08.744Z,19.28
2023-04-11T02:11:08.805Z,19.28
2023-04-11T02:12:08.852Z,19.28
2023-04-11T02:13:08.892Z,19.29
2023-04-11T02:14:08.948Z,19.28
2023-04-11T02:15:09.015Z,19.29
2023-04-11T02:16:09.172Z,19.29
2023-04-11T02:17:09.137Z,19.30
2023-04-11T02:18:09.227Z,19.30
2023-04-11T02:19:09.238Z,19.29
2023-04-11T02:20:09.309Z,19.29
2023-04-11T02:21:09.325Z,19.29
2023-04-11T02:22:09.378Z,19.29
2023-04-11T02:23:09.416Z,19.29
2023-04-11T02:24:09.471Z,19.28
2023-04-11T02:25:09.561Z,19.28
2023-04-11T02:26:11.251Z,19.29
2023-04-11T02:27:09.647Z,19.30
2023-04-11T02:28:09.744Z,19.30
2023-04-11T02:29:09.781Z,19.29
2023-04-11T02:30:09.848Z,19.28
2023-04-11T02:31:09.975Z,19.27
2023-04-11T02:32:10.058Z,19.27
2023-04-11T02:33:10.009Z,19.27
2023-04-11T02:34:10.045Z,19.27
2023-04-11T02:35:10.127Z,19.26
2023-04-11T02:36:10.193Z,19.26
2023-04-11T02:37:10.249Z,19.27
2023-04-11T02:38:10.294Z,19.27
2023-04-11T02:39:10.336Z,19.28
2023-04-11T02:40:10.473Z,19.29
2023-04-11T02:41:10.470Z,19.29
2023-04-11T02:42:10.549Z,19.29
2023-04-11T02:43:10.581Z,19.28
2023-04-11T02:44:10.650Z,19.28
2023-04-11T02:45:10.719Z,19.28
2023-04-11T02:47:10.883Z,19.28
2023-04-11T02:48:10.892Z,19.28
2023-04-11T02:49:10.957Z,19.27
2023-04-11T02:50:11.010Z,19.27
2023-04-11T02:51:11.056Z,19.26
2023-04-11T02:52:11.151Z,19.26
2023-04-11T02:53:11.155Z,19.27
2023-04-11T02:54:11.239Z,19.27
2023-04-11T02:55:11.316Z,19.27
2023-04-11T02:56:11.350Z,19.27
2023-04-11T02:57:11.404Z,19.27
2023-04-11T02:58:11.454Z,19.28
2023-04-11T02:59:11.547Z,19.28
2023-04-11T03:00:11.562Z,19.28
2023-04-11T03:01:11.629Z,19.28
2023-04-11T03:02:11.833Z,19.28
2023-04-11T03:03:11.876Z,19.28
2023-04-11T03:04:11.853Z,19.29
2023-04-11T03:05:11.847Z,19.29
2023-04-11T03:06:11.911Z,19.29
2023-04-11T03:07:11.937Z,19.29
2023-04-11T03:08:12.031Z,19.28
2023-04-11T03:09:12.065Z,19.28
2023-04-11T03:10:12.122Z,19.28
2023-04-11T03:11:12.197Z,19.28
2023-04-11T03:12:12.242Z,19.28
2023-04-11T03:13:12.311Z,19.27
2023-04-11T03:14:12.352Z,19.27
2023-04-11T03:15:12.406Z,19.27
2023-04-11T03:16:12.500Z,19.27
2023-04-11T03:17:12.550Z,19.27
2023-04-11T03:18:12.572Z,19.27
2023-04-11T03:19:12.661Z,19.27
2023-04-11T03:20:12.695Z,19.27
2023-04-11T03:21:12.789Z,19.27
2023-04-11T03:22:12.798Z,19.27
2023-04-11T03:23:12.855Z,19.27
2023-04-11T03:24:12.919Z,19.27
2023-04-11T03:25:12.970Z,19.27
2023-04-11T03:26:13.033Z,19.26
2023-04-11T03:27:13.103Z,19.26
2023-04-11T03:28:13.178Z,19.27
2023-04-11T03:29:13.181Z,19.27
2023-04-11T03:30:13.272Z,19.26
2023-04-11T03:31:13.426Z,19.28
2023-04-11T03:32:13.365Z,19.27
2023-04-11T03:33:13.467Z,19.27
2023-04-11T03:34:13.492Z,19.27
2023-04-11T03:35:13.518Z,19.28
2023-04-11T03:36:13.657Z,19.27
2023-04-11T03:37:13.627Z,19.27
2023-04-11T03:38:13.768Z,19.27
2023-04-11T03:39:13.752Z,19.27
2023-04-11T03:40:13.823Z,19.26
2023-04-11T03:41:13.859Z,19.27
2023-04-11T03:42:13.923Z,19.27
2023-04-11T03:43:13.986Z,19.27
2023-04-11T03:44:14.056Z,19.27
2023-04-11T03:45:14.084Z,19.27
2023-04-11T03:46:14.202Z,19.26
2023-04-11T03:47:14.202Z,19.26
2023-04-11T03:48:14.284Z,19.26
2023-04-11T03:49:14.328Z,19.25
2023-04-11T03:50:14.377Z,19.26
2023-04-11T03:51:14.440Z,19.26
2023-04-11T03:52:14.466Z,19.27
2023-04-11T03:53:14.569Z,19.26
2023-04-11T03:54:14.601Z,19.26
2023-04-11T03:55:14.673Z,19.26
2023-04-11T03:56:14.700Z,19.26
2023-04-11T03:57:14.787Z,19.27
2023-04-11T03:58:14.829Z,19.27
2023-04-11T03:59:14.887Z,19.27
2023-04-11T04:00:14.924Z,19.27
2023-04-11T04:01:14.996Z,19.27
2023-04-11T04:02:15.188Z,19.27
2023-04-11T04:03:15.259Z,19.28
2023-04-11T04:04:15.347Z,19.29
2023-04-11T04:05:15.227Z,19.27
2023-04-11T04:06:15.246Z,19.27
2023-04-11T04:07:15.330Z,19.28
2023-04-11T04:08:15.366Z,19.27
2023-04-11T04:09:15.415Z,19.27
2023-04-11T04:10:15.497Z,19.27
2023-04-11T04:11:15.538Z,19.26
2023-04-11T04:12:15.618Z,19.26
2023-04-11T04:13:15.653Z,19.27
2023-04-11T04:14:15.728Z,19.27
2023-04-11T04:15:15.782Z,19.27
2023-04-11T04:16:15.894Z,19.28
2023-04-11T04:17:15.863Z,19.27
2023-04-11T04:18:15.959Z,19.27
2023-04-11T04:19:15.991Z,19.26
2023-04-11T04:20:16.028Z,19.26
2023-04-11T04:21:16.119Z,19.26
2023-04-11T04:22:16.167Z,19.26
2023-04-11T04:23:16.237Z,19.26
2023-04-11T04:24:16.283Z,19.26
2023-04-11T04:25:16.351Z,19.26
2023-04-11T04:26:16.412Z,19.26
2023-04-11T04:27:16.460Z,19.27
2023-04-11T04:28:16.497Z,19.26
2023-04-11T04:29:16.595Z,19.27
2023-04-11T04:30:16.629Z,19.26
2023-04-11T04:31:16.708Z,19.27
2023-04-11T04:32:16.702Z,19.27
2023-04-11T04:33:16.802Z,19.25
2023-04-11T04:34:16.825Z,19.26
2023-04-11T04:35:17.036Z,19.27
2023-04-11T04:36:16.951Z,19.26
2023-04-11T04:37:17.036Z,19.26
2023-04-11T04:38:17.073Z,19.26
2023-04-11T04:39:17.110Z,19.26
2023-04-11T04:40:17.157Z,19.26
2023-04-11T04:41:17.264Z,19.25
2023-04-11T04:42:17.301Z,19.26
2023-04-11T04:43:17.338Z,19.25
2023-04-11T04:44:17.455Z,19.25
2023-04-11T04:45:17.453Z,19.26
2023-04-11T04:46:17.533Z,19.27
2023-04-11T04:47:17.574Z,19.26
2023-04-11T04:48:17.666Z,19.26
2023-04-11T04:49:17.703Z,19.25
2023-04-11T04:50:17.760Z,19.26
2023-04-11T04:51:17.819Z,19.26
2023-04-11T04:52:17.885Z,19.26
2023-04-11T04:53:17.915Z,19.26
2023-04-11T04:54:18.007Z,19.26
2023-04-11T04:55:18.057Z,19.27
2023-04-11T04:56:18.099Z,19.27
2023-04-11T04:57:18.172Z,19.28
2023-04-11T04:58:18.233Z,19.29
2023-04-11T04:59:18.281Z,19.28
2023-04-11T05:00:18.355Z,19.28
2023-04-11T05:01:18.422Z,19.28
2023-04-11T05:02:18.539Z,19.27
2023-04-11T05:03:18.622Z,19.27
2023-04-11T05:04:18.649Z,19.27
2023-04-11T05:05:18.664Z,19.28
2023-04-11T05:06:19.858Z,19.28
2023-04-11T05:07:18.761Z,19.28
2023-04-11T05:08:18.842Z,19.27
2023-04-11T05:09:18.848Z,19.26
2023-04-11T05:10:19.015Z,19.26
2023-04-11T05:11:18.999Z,19.28
2023-04-11T05:12:19.031Z,19.27
2023-04-11T05:13:19.135Z,19.27
2023-04-11T05:14:19.196Z,19.27
2023-04-11T05:15:19.241Z,19.28
2023-04-11T05:16:19.317Z,19.28
2023-04-11T05:17:19.399Z,19.29
2023-04-11T05:18:19.432Z,19.28
2023-04-11T05:19:19.495Z,19.28
2023-04-11T05:20:19.532Z,19.29
2023-04-11T05:21:19.570Z,19.29
2023-04-11T05:22:19.649Z,19.29
2023-04-11T05:23:19.711Z,19.29
2023-04-11T05:24:19.733Z,19.28
2023-04-11T05:25:19.844Z,19.29
2023-04-11T05:26:19.859Z,19.29
2023-04-11T05:27:19.921Z,19.28
2023-04-11T05:28:19.995Z,19.29
2023-04-11T05:29:20.050Z,19.28
2023-04-11T05:30:20.114Z,19.29
2023-04-11T05:31:20.228Z,19.29
2023-04-11T05:32:20.274Z,19.29
2023-04-11T05:33:20.281Z,19.28
2023-04-11T05:34:20.344Z,19.29
2023-04-11T05:35:20.374Z,19.29
2023-04-11T05:36:20.428Z,19.29
2023-04-11T05:37:20.510Z,19.29
2023-04-11T05:38:20.555Z,19.29
2023-04-11T05:39:21.088Z,19.29
2023-04-11T05:40:20.687Z,19.29
2023-04-11T05:41:20.740Z,19.29
2023-04-11T05:42:20.816Z,19.28
2023-04-11T05:43:20.880Z,19.28
2023-04-11T05:44:20.915Z,19.28
2023-04-11T05:45:20.929Z,19.28
2023-04-11T05:46:21.053Z,19.28
2023-04-11T05:47:21.076Z,19.28
2023-04-11T05:48:21.115Z,19.28
2023-04-11T05:49:21.169Z,19.27
2023-04-11T05:50:21.258Z,19.28
2023-04-11T05:51:21.304Z,19.27
2023-04-11T05:52:21.363Z,19.27
2023-04-11T05:53:21.400Z,19.29
2023-04-11T05:54:21.449Z,19.28
2023-04-11T05:55:21.513Z,19.28
2023-04-11T05:56:21.553Z,19.28
2023-04-11T05:57:21.635Z,19.29
2023-04-11T05:58:21.661Z,19.28
2023-04-11T05:59:26.409Z,19.28
2023-04-11T06:00:22.738Z,19.28
2023-04-11T06:01:21.730Z,19.27
2023-04-11T06:02:21.816Z,19.27
2023-04-11T06:03:21.960Z,19.27
2023-04-11T06:04:21.821Z,19.27
2023-04-11T06:05:21.686Z,19.27
2023-04-11T06:06:21.800Z,19.28
2023-04-11T06:07:21.692Z,19.28
2023-04-11T06:08:21.734Z,19.28
2023-04-11T06:09:21.748Z,19.28
2023-04-11T06:10:21.832Z,19.28
2023-04-11T06:11:21.890Z,19.28
2023-04-11T06:12:21.950Z,19.28
2023-04-11T06:13:22.006Z,19.28
2023-04-11T06:14:22.042Z,19.28
2023-04-11T06:15:22.081Z,19.28
2023-04-11T06:16:22.161Z,19.29
2023-04-11T06:17:22.244Z,19.29
2023-04-11T06:18:22.262Z,19.29
2023-04-11T06:19:22.338Z,19.29
2023-04-11T06:20:22.419Z,19.30
2023-04-11T06:21:22.451Z,19.30
2023-04-11T06:22:22.504Z,19.29
2023-04-11T06:23:22.551Z,19.29
2023-04-11T06:24:22.605Z,19.29
2023-04-11T06:25:22.696Z,19.30
2023-04-11T06:26:22.741Z,19.30
2023-04-11T06:27:22.759Z,19.30
2023-04-11T06:28:22.860Z,19.30
2023-04-11T06:29:22.890Z,19.30
2023-04-11T06:30:22.960Z,19.28
2023-04-11T06:31:23.005Z,19.28
2023-04-11T06:32:23.107Z,19.28
2023-04-11T06:33:23.099Z,19.29
2023-04-11T06:34:23.154Z,19.28
2023-04-11T06:35:23.213Z,19.29
2023-04-11T06:36:23.252Z,19.29
2023-04-11T06:37:23.319Z,19.29
2023-04-11T06:38:23.405Z,19.30
2023-04-11T06:39:23.420Z,19.29
2023-04-11T06:40:23.510Z,19.30
2023-04-11T06:41:23.533Z,19.30
2023-04-11T06:42:23.578Z,19.30
2023-04-11T06:43:23.672Z,19.30
2023-04-11T06:44:23.755Z,19.30
2023-04-11T06:45:23.771Z,19.31
2023-04-11T06:46:23.940Z,19.31
2023-04-11T06:47:23.896Z,19.31
2023-04-11T06:48:23.932Z,19.31
2023-04-11T06:49:24.053Z,19.30
2023-04-11T06:50:24.051Z,19.30
2023-04-11T06:51:24.078Z,19.31
2023-04-11T06:52:25.846Z,19.30
2023-04-11T06:53:24.151Z,19.30
2023-04-11T06:54:24.143Z,19.30
2023-04-11T06:55:24.141Z,19.31
2023-04-11T06:56:24.149Z,19.31
2023-04-11T06:57:24.139Z,19.31
2023-04-11T06:58:24.125Z,19.31
2023-04-11T06:59:24.892Z,19.31
2023-04-11T07:00:24.109Z,19.31
2023-04-11T07:01:24.161Z,19.31
2023-04-11T07:02:24.460Z,19.30
2023-04-11T07:03:24.211Z,19.31
2023-04-11T07:04:24.111Z,19.30
2023-04-11T07:05:24.075Z,19.30
2023-04-11T07:06:24.059Z,19.30
2023-04-11T07:07:24.064Z,19.30
2023-04-11T07:08:24.041Z,19.31
2023-04-11T07:09:24.063Z,19.31
2023-04-11T07:10:24.047Z,19.31
2023-04-11T07:11:24.001Z,19.31
2023-04-11T07:12:24.040Z,19.30
2023-04-11T07:13:24.023Z,19.30
2023-04-11T07:14:24.020Z,19.29
2023-04-11T07:15:24.015Z,19.30
2023-04-11T07:16:24.055Z,19.30
2023-04-11T07:17:24.050Z,19.30
2023-04-11T07:18:24.002Z,19.30
2023-04-11T07:19:23.983Z,19.30
2023-04-11T07:20:23.960Z,19.30
2023-04-11T07:21:23.977Z,19.31
2023-04-11T07:22:23.944Z,19.31
2023-04-11T07:23:24.031Z,19.31
2023-04-11T07:24:23.949Z,19.31
2023-04-11T07:25:23.937Z,19.31
2023-04-11T07:26:23.944Z,19.32
2023-04-11T07:27:24.006Z,19.32
2023-04-11T07:28:24.032Z,19.32
2023-04-11T07:29:24.122Z,19.32
2023-04-11T07:30:24.158Z,19.32
2023-04-11T07:31:24.237Z,19.31
2023-04-11T07:32:24.272Z,19.33
2023-04-11T07:33:24.320Z,19.31
2023-04-11T07:34:24.378Z,19.32
2023-04-11T07:35:24.387Z,19.31
2023-04-11T07:36:24.451Z,19.31
2023-04-11T07:37:24.494Z,19.30
2023-04-11T07:38:24.584Z,19.31
2023-04-11T07:39:24.630Z,19.31
2023-04-11T07:40:24.683Z,19.32
2023-04-11T07:41:24.706Z,19.32
2023-04-11T07:42:24.772Z,19.32
2023-04-11T07:43:24.826Z,19.32
2023-04-11T07:44:24.866Z,19.32
2023-04-11T07:45:24.964Z,19.32
2023-04-11T07:46:24.965Z,19.32
2023-04-11T07:47:25.052Z,19.31
2023-04-11T07:48:25.093Z,19.32
2023-04-11T07:49:25.123Z,19.32
2023-04-11T07:50:25.179Z,19.33
2023-04-11T07:51:25.237Z,19.32
2023-04-11T07:52:25.314Z,19.33
2023-04-11T07:53:25.336Z,19.33
2023-04-11T07:54:25.420Z,19.33
2023-04-11T07:55:25.506Z,19.33
2023-04-11T07:56:25.492Z,19.32
2023-04-11T07:57:25.534Z,19.33
2023-04-11T07:58:25.614Z,19.33
2023-04-11T07:59:25.655Z,19.31
2023-04-11T08:00:25.801Z,19.31
2023-04-11T08:01:25.793Z,19.32
2023-04-11T08:02:25.992Z,19.32
2023-04-11T08:03:25.996Z,19.32
2023-04-11T08:04:26.164Z,19.33
2023-04-11T08:05:26.117Z,19.32
2023-04-11T08:06:26.025Z,19.33
2023-04-11T08:07:26.075Z,19.32
2023-04-11T08:08:26.174Z,19.32
2023-04-11T08:09:26.191Z,19.33
2023-04-11T08:10:26.251Z,19.33
2023-04-11T08:11:26.287Z,19.33
2023-04-11T08:12:26.346Z,19.32
2023-04-11T08:13:26.421Z,19.33
2023-04-11T08:14:26.467Z,19.33
2023-04-11T08:15:26.531Z,19.33
2023-04-11T08:16:26.622Z,19.33
2023-04-11T08:17:28.668Z,19.33
2023-04-11T08:18:26.727Z,19.33
2023-04-11T08:19:26.714Z,19.33
2023-04-11T08:20:26.777Z,19.34
2023-04-11T08:21:26.836Z,19.33
2023-04-11T08:22:26.827Z,19.34
2023-04-11T08:23:26.945Z,19.34
2023-04-11T08:24:26.972Z,19.34
2023-04-11T08:25:27.036Z,19.35
2023-04-11T08:26:27.040Z,19.34
2023-04-11T08:27:27.072Z,19.34
2023-04-11T08:28:27.140Z,19.34
2023-04-11T08:29:27.179Z,19.34
2023-04-11T08:30:27.277Z,19.35
2023-04-11T08:31:27.358Z,19.34
2023-04-11T08:32:27.402Z,19.34
2023-04-11T08:33:27.345Z,19.35
2023-04-11T08:34:27.432Z,19.34
2023-04-11T08:35:27.462Z,19.34
2023-04-11T08:36:27.494Z,19.34
2023-04-11T08:37:27.753Z,19.34
2023-04-11T08:38:27.635Z,19.35
2023-04-11T08:39:27.665Z,19.35
2023-04-11T08:40:27.742Z,19.34
2023-04-11T08:41:27.760Z,19.34
2023-04-11T08:42:27.817Z,19.34
2023-04-11T08:43:27.859Z,19.35
2023-04-11T08:44:27.893Z,19.34
2023-04-11T08:45:27.915Z,19.35
2023-04-11T08:46:28.033Z,19.34
2023-04-11T08:47:28.038Z,19.35
2023-04-11T08:48:28.081Z,19.35
2023-04-11T08:49:28.149Z,19.35
2023-04-11T08:50:28.147Z,19.34
2023-04-11T08:51:28.243Z,19.33
2023-04-11T08:52:28.274Z,19.33
2023-04-11T08:53:28.299Z,19.34
2023-04-11T08:54:28.365Z,19.34
2023-04-11T08:55:28.402Z,19.35
2023-04-11T08:56:28.497Z,19.35
2023-04-11T08:57:28.514Z,19.34
2023-04-11T08:58:28.580Z,19.34
2023-04-11T08:59:28.613Z,19.34
2023-04-11T09:00:28.665Z,19.35
2023-04-11T09:01:28.751Z,19.34
2023-04-11T09:02:28.870Z,19.35
2023-04-11T09:03:28.850Z,19.34
2023-04-11T09:04:28.824Z,19.34
2023-04-11T09:05:28.903Z,19.34
2023-04-11T09:06:28.937Z,19.35
2023-04-11T09:07:28.983Z,19.35
2023-04-11T09:08:29.046Z,19.35
2023-04-11T09:09:29.046Z,19.35
2023-04-11T09:10:29.128Z,19.35
2023-04-11T09:11:29.174Z,19.36
2023-04-11T09:12:29.636Z,19.35
2023-04-11T09:13:29.254Z,19.36
2023-04-11T09:14:29.364Z,19.36
2023-04-11T09:15:29.440Z,19.35
2023-04-11T09:16:29.457Z,19.36
2023-04-11T09:17:29.495Z,19.36
2023-04-11T09:18:29.497Z,19.37
2023-04-11T09:19:29.512Z,19.37
2023-04-11T09:20:29.574Z,19.36
2023-04-11T09:21:30.839Z,19.37
2023-04-11T09:22:29.649Z,19.37
2023-04-11T09:23:29.762Z,19.36
2023-04-11T09:24:29.778Z,19.36
2023-04-11T09:25:29.824Z,19.36
2023-04-11T09:26:29.844Z,19.36
2023-04-11T09:27:29.890Z,19.35
2023-04-11T09:28:30.013Z,19.35
2023-04-11T09:29:29.976Z,19.36
2023-04-11T09:30:30.049Z,19.35
2023-04-11T09:31:30.113Z,19.36
2023-04-11T09:32:30.168Z,19.35
2023-04-11T09:33:30.186Z,19.35
2023-04-11T09:34:30.237Z,19.36
2023-04-11T09:35:30.309Z,19.35
2023-04-11T09:36:30.400Z,19.35
2023-04-11T09:37:30.379Z,19.36
2023-04-11T09:38:30.422Z,19.36
2023-04-11T09:39:30.483Z,19.36
2023-04-11T09:40:30.526Z,19.36
2023-04-11T09:41:30.587Z,19.35
2023-04-11T09:42:30.615Z,19.35
2023-04-11T09:43:30.651Z,19.35
2023-04-11T09:44:30.683Z,19.36
2023-04-11T09:45:32.083Z,19.34
2023-04-11T09:46:30.751Z,19.35
2023-04-11T09:47:30.779Z,19.35
2023-04-11T09:48:43.374Z,19.36
2023-04-11T09:49:31.728Z,19.35
2023-04-11T09:50:30.736Z,19.35
2023-04-11T09:51:36.480Z,19.35
2023-04-11T09:52:31.718Z,19.35
2023-04-11T09:53:31.302Z,19.37
2023-04-11T09:54:30.702Z,19.37
2023-04-11T09:55:30.671Z,19.36
2023-04-11T09:56:30.645Z,19.35
2023-04-11T09:57:30.681Z,19.35
2023-04-11T09:58:31.298Z,19.35
2023-04-11T09:59:30.682Z,19.35
2023-04-11T10:00:30.669Z,19.36
2023-04-11T10:01:30.664Z,19.36
2023-04-11T10:02:30.763Z,19.36
2023-04-11T10:03:30.749Z,19.37
2023-04-11T10:04:30.826Z,19.36
2023-04-11T10:05:30.848Z,19.36
2023-04-11T10:06:30.870Z,19.36
2023-04-11T10:07:30.929Z,19.37
2023-04-11T10:08:30.966Z,19.36
2023-04-11T10:09:31.052Z,19.37
2023-04-11T10:10:31.078Z,19.37
2023-04-11T10:11:31.120Z,19.37
2023-04-11T10:12:31.143Z,19.37
2023-04-11T10:13:31.197Z,19.37
2023-04-11T10:14:31.253Z,19.37
2023-04-11T10:15:31.268Z,19.36
2023-04-11T10:16:31.423Z,19.37
2023-04-11T10:17:31.418Z,19.36
2023-04-11T10:18:31.418Z,19.37
2023-04-11T10:19:31.501Z,19.36
2023-04-11T10:20:31.522Z,19.37
2023-04-11T10:21:31.584Z,19.37
2023-04-11T10:22:31.641Z,19.36
2023-04-11T10:23:31.685Z,19.37
2023-04-11T10:24:31.761Z,19.38
2023-04-11T10:25:31.750Z,19.38
2023-04-11T10:26:31.834Z,19.38
2023-04-11T10:27:31.845Z,19.39
2023-04-11T10:28:31.900Z,19.39
2023-04-11T10:29:31.990Z,19.39
2023-04-11T10:30:31.986Z,19.39
2023-04-11T10:31:32.078Z,19.39
2023-04-11T10:32:32.151Z,19.38
2023-04-11T10:33:32.156Z,19.39
2023-04-11T10:34:32.196Z,19.39
2023-04-11T10:35:32.269Z,19.39
2023-04-11T10:36:32.275Z,19.38
2023-04-11T10:37:32.350Z,19.39
2023-04-11T10:38:32.397Z,19.38
2023-04-11T10:39:32.454Z,19.38
2023-04-11T10:40:32.487Z,19.39
2023-04-11T10:41:32.523Z,19.37
2023-04-11T10:42:32.586Z,19.38
2023-04-11T10:43:32.624Z,19.38
2023-04-11T10:44:32.699Z,19.38
2023-04-11T10:45:32.720Z,19.38
2023-04-11T10:46:32.772Z,19.38
2023-04-11T10:47:32.912Z,19.39
2023-04-11T10:48:32.853Z,19.40
2023-04-11T10:49:32.945Z,19.39
2023-04-11T10:50:32.985Z,19.38
2023-04-11T10:51:33.007Z,19.40
2023-04-11T10:52:33.077Z,19.40
2023-04-11T10:53:33.105Z,19.40
2023-04-11T10:54:33.158Z,19.41
2023-04-11T10:55:33.226Z,19.41
2023-04-11T10:56:33.262Z,19.41
2023-04-11T10:57:33.291Z,19.41
2023-04-11T10:58:33.321Z,19.41
2023-04-11T10:59:33.380Z,19.41
2023-04-11T11:00:33.490Z,19.41
2023-04-11T11:01:42.817Z,19.40
2023-04-11T11:02:34.588Z,19.40
2023-04-11T11:03:33.711Z,19.40
2023-04-11T11:04:33.600Z,19.41
2023-04-11T11:05:33.464Z,19.42
2023-04-11T11:06:34.731Z,19.42
2023-04-11T11:07:33.434Z,19.43
2023-04-11T11:08:33.446Z,19.44
2023-04-11T11:09:33.464Z,19.44
2023-04-11T11:10:33.427Z,19.44
2023-04-11T11:11:33.432Z,19.44
2023-04-11T11:12:33.411Z,19.43
2023-04-11T11:13:33.366Z,19.43
2023-04-11T11:14:33.414Z,19.43
2023-04-11T11:15:33.397Z,19.44
2023-04-11T11:16:33.434Z,19.44
2023-04-11T11:17:33.404Z,19.45
2023-04-11T11:18:33.362Z,19.44
2023-04-11T11:19:33.348Z,19.44
2023-04-11T11:20:33.346Z,19.43
2023-04-11T11:21:33.333Z,19.44
2023-04-11T11:22:33.337Z,19.44
2023-04-11T11:23:34.366Z,19.44
2023-04-11T11:24:33.346Z,19.44
2023-04-11T11:25:33.365Z,19.44
2023-04-11T11:26:33.295Z,19.45
2023-04-11T11:27:33.283Z,19.45
2023-04-11T11:28:33.311Z,19.45
2023-04-11T11:29:33.287Z,19.45
2023-04-11T11:30:33.262Z,19.45
2023-04-11T11:31:33.293Z,19.43
2023-04-11T11:32:33.293Z,19.44
2023-04-11T11:33:33.262Z,19.45
2023-04-11T11:34:33.284Z,19.44
2023-04-11T11:35:33.245Z,19.45
2023-04-11T11:36:33.285Z,19.44
2023-04-11T11:37:33.239Z,19.45
2023-04-11T11:38:33.232Z,19.45
2023-04-11T11:39:33.218Z,19.45
2023-04-11T11:40:33.195Z,19.45
2023-04-11T11:41:33.265Z,19.45
2023-04-11T11:42:33.251Z,19.45
2023-04-11T11:43:33.315Z,19.45
2023-04-11T11:44:33.369Z,19.45
2023-04-11T11:45:33.499Z,19.45
2023-04-11T11:46:33.477Z,19.44
2023-04-11T11:47:33.530Z,19.44
2023-04-11T11:48:33.505Z,19.44
2023-04-11T11:49:33.560Z,19.45
2023-04-11T11:50:33.620Z,19.44
2023-04-11T11:51:33.677Z,19.45
2023-04-11T11:52:33.710Z,19.45
2023-04-11T11:53:33.744Z,19.45
2023-04-11T11:54:33.793Z,19.45
2023-04-11T11:55:33.823Z,19.45
2023-04-11T11:56:33.965Z,19.45
2023-04-11T11:57:33.917Z,19.44
2023-04-11T11:58:33.958Z,19.45
2023-04-11T11:59:34.002Z,19.45
2023-04-11T12:00:34.030Z,19.45
2023-04-11T12:01:34.105Z,19.46
2023-04-11T12:02:34.242Z,19.45
2023-04-11T12:03:34.371Z,19.45
2023-04-11T12:04:34.413Z,19.44
2023-04-11T12:05:34.310Z,19.44
2023-04-11T12:06:34.264Z,19.44
2023-04-11T12:07:34.357Z,19.44
2023-04-11T12:08:34.380Z,19.44
2023-04-11T12:09:34.434Z,19.45
2023-04-11T12:10:34.480Z,19.45
2023-04-11T12:11:34.489Z,19.45
2023-04-11T12:12:34.522Z,19.45
2023-04-11T12:13:34.567Z,19.45
2023-04-11T12:14:34.622Z,19.45
2023-04-11T12:15:34.682Z,19.46
2023-04-11T12:16:34.708Z,19.45
2023-04-11T12:17:35.611Z,19.44
2023-04-11T12:18:34.738Z,19.44
2023-04-11T12:19:34.704Z,19.44
2023-04-11T12:20:34.711Z,19.45
2023-04-11T12:21:34.719Z,19.45
2023-04-11T12:22:34.685Z,19.45
2023-04-11T12:23:34.669Z,19.45
2023-04-11T12:24:34.708Z,19.45
2023-04-11T12:25:34.661Z,19.45
2023-04-11T12:26:34.683Z,19.45
2023-04-11T12:27:34.683Z,19.45
2023-04-11T12:28:34.668Z,19.45
2023-04-11T12:29:34.649Z,19.45
2023-04-11T12:30:34.654Z,19.45
2023-04-11T12:31:34.656Z,19.45
2023-04-11T12:32:34.662Z,19.46
2023-04-11T12:33:34.611Z,19.46
2023-04-11T12:34:34.630Z,19.46
2023-04-11T12:35:34.636Z,19.45
2023-04-11T12:36:34.629Z,19.45
2023-04-11T12:37:34.620Z,19.46
2023-04-11T12:38:34.623Z,19.45
2023-04-11T12:39:34.569Z,19.46
2023-04-11T12:40:34.582Z,19.46
2023-04-11T12:41:34.597Z,19.46
2023-04-11T12:42:36.662Z,19.46
2023-04-11T12:43:35.572Z,19.45
2023-04-11T12:44:34.578Z,19.45
2023-04-11T12:45:34.547Z,19.44
2023-04-11T12:46:34.573Z,19.44
2023-04-11T12:47:34.556Z,19.44
2023-04-11T12:48:34.557Z,19.44
2023-04-11T12:49:34.500Z,19.44
2023-04-11T12:50:34.511Z,19.44
2023-04-11T12:51:34.524Z,19.45
2023-04-11T12:52:34.479Z,19.44
2023-04-11T12:53:34.514Z,19.44